createdAt,value
2023-01-18T00:02:08.339Z,22.98
2023-01-18T00:04:34.912Z,22.55
2023-01-18T00:07:01.524Z,22.25
2023-01-18T00:09:28.151Z,23.38
2023-01-18T00:11:54.735Z,23.88
2023-01-18T00:14:21.376Z,22.90
2023-01-18T00:16:47.964Z,22.70
2023-01-18T00:19:14.643Z,22.88
2023-01-18T00:21:41.217Z,22.48
2023-01-18T00:24:11.384Z,22.38
2023-01-18T00:26:38.170Z,23.02
2023-01-18T00:29:05.180Z,23.67
2023-01-18T00:31:32.317Z,22.42
2023-01-18T00:33:58.959Z,22.30
2023-01-18T00:36:25.529Z,22.02
2023-01-18T00:38:52.684Z,22.98
2023-01-18T00:41:20.623Z,22.65
2023-01-18T00:43:47.391Z,24.85
2023-01-18T00:46:33.741Z,25.02
2023-01-18T00:49:00.274Z,24.80
2023-01-18T00:51:26.889Z,23.40
2023-01-18T00:53:53.527Z,24.73
2023-01-18T00:56:22.387Z,23.88
2023-01-18T00:58:49.418Z,23.17
2023-01-18T01:01:16.583Z,23.30
2023-01-18T01:04:01.745Z,23.88
2023-01-18T01:09:25.186Z,23.85
2023-01-18T01:12:11.710Z,22.75
2023-01-18T01:15:00.163Z,22.33
2023-01-18T01:17:48.030Z,23.13
2023-01-18T01:20:33.849Z,22.92
2023-01-18T01:23:39.233Z,23.35
2023-01-18T01:26:16.382Z,22.80
2023-01-18T01:28:51.194Z,24.20
2023-01-18T01:31:19.214Z,24.58
2023-01-18T01:33:49.140Z,23.80
2023-01-18T01:36:18.911Z,24.33
2023-01-18T01:38:46.043Z,23.50
2023-01-18T01:41:21.396Z,23.13
2023-01-18T01:43:51.170Z,22.73
2023-01-18T01:46:50.110Z,22.77
2023-01-18T01:49:29.921Z,22.45
2023-01-18T01:52:05.160Z,23.42
2023-01-18T01:54:54.803Z,27.65
2023-01-18T01:57:35.335Z,28.48
2023-01-18T02:00:20.449Z,26.88
2023-01-18T02:05:18.100Z,33.17
2023-01-18T02:07:44.951Z,47.33
2023-01-18T02:10:11.977Z,52.60
2023-01-18T02:12:45.036Z,37.70
2023-01-18T02:15:11.873Z,63.90
2023-01-18T02:18:11.240Z,80.13
2023-01-18T02:21:02.527Z,45.00
2023-01-18T02:23:39.579Z,53.53
2023-01-18T02:26:45.072Z,90.40
2023-01-18T02:29:56.375Z,77.97
2023-01-18T02:32:27.850Z,102.78
2023-01-18T02:35:07.236Z,87.13
2023-01-18T02:38:01.240Z,82.53
2023-01-18T02:41:00.283Z,87.85
2023-01-18T02:43:46.174Z,83.82
2023-01-18T02:46:33.843Z,67.22
2023-01-18T02:49:04.796Z,87.10
2023-01-18T02:51:31.467Z,69.82
2023-01-18T02:53:58.808Z,77.40
2023-01-18T02:56:49.250Z,66.00
2023-01-18T02:59:24.587Z,75.18
2023-01-18T03:01:57.483Z,72.18
2023-01-18T03:04:44.978Z,68.28
2023-01-18T03:07:19.400Z,62.22
2023-01-18T03:09:46.702Z,58.72
2023-01-18T03:12:47.425Z,47.78
2023-01-18T03:15:31.099Z,48.97
2023-01-18T03:18:03.030Z,55.15
2023-01-18T03:20:35.789Z,51.13
2023-01-18T03:23:39.805Z,55.70
2023-01-18T03:26:19.537Z,53.60
2023-01-18T03:29:11.204Z,48.20
2023-01-18T03:32:04.655Z,42.20
2023-01-18T03:34:44.164Z,39.63
2023-01-18T03:37:17.995Z,40.03
2023-01-18T03:39:49.651Z,35.07
2023-01-18T03:42:24.034Z,42.10
2023-01-18T03:45:05.730Z,40.55
2023-01-18T03:47:32.753Z,45.50
2023-01-18T03:49:59.339Z,40.38
2023-01-18T03:52:37.685Z,39.50
2023-01-18T03:55:20.946Z,39.83
2023-01-18T03:57:55.872Z,37.50
2023-01-18T04:00:22.486Z,35.38
2023-01-18T04:02:50.219Z,36.13
2023-01-18T04:05:17.365Z,41.20
2023-01-18T04:07:44.601Z,35.47
2023-01-18T04:10:11.737Z,36.97
2023-01-18T04:12:38.361Z,36.97
2023-01-18T04:15:05.518Z,33.70
2023-01-18T04:17:32.112Z,35.45
2023-01-18T04:19:58.794Z,35.05
2023-01-18T04:22:25.578Z,35.38
2023-01-18T04:24:52.351Z,30.80
2023-01-18T04:27:18.991Z,31.83
2023-01-18T04:29:45.591Z,35.33
2023-01-18T04:32:12.174Z,34.92
2023-01-18T04:34:38.704Z,36.60
2023-01-18T04:37:05.270Z,47.80
2023-01-18T04:39:31.812Z,44.60
2023-01-18T04:41:59.413Z,39.30
2023-01-18T04:44:26.017Z,39.97
2023-01-18T04:46:52.826Z,36.88
2023-01-18T04:49:19.537Z,36.22
2023-01-18T04:51:46.820Z,35.08
2023-01-18T04:54:16.744Z,37.45
2023-01-18T04:56:43.359Z,35.58
2023-01-18T04:59:14.569Z,37.55
2023-01-18T05:01:41.151Z,45.38
2023-01-18T05:04:07.735Z,43.72
2023-01-18T05:06:34.302Z,46.08
2023-01-18T05:09:00.900Z,52.47
2023-01-18T05:11:27.476Z,55.03
2023-01-18T05:13:54.033Z,72.63
2023-01-18T05:16:23.072Z,67.47
2023-01-18T05:18:50.041Z,58.13
2023-01-18T05:21:16.699Z,62.30
2023-01-18T05:23:43.336Z,48.70
2023-01-18T05:26:16.285Z,60.80
2023-01-18T05:28:43.381Z,63.22
2023-01-18T05:31:10.015Z,58.65
2023-01-18T05:33:36.879Z,53.95
2023-01-18T05:36:04.107Z,80.63
2023-01-18T05:38:31.024Z,57.25
2023-01-18T05:40:57.872Z,59.35
2023-01-18T05:43:26.572Z,61.78
2023-01-18T05:45:53.434Z,81.00
2023-01-18T05:48:20.622Z,64.88
2023-01-18T05:50:48.797Z,57.60
2023-01-18T05:53:21.126Z,62.92
2023-01-18T05:55:58.622Z,57.70
2023-01-18T05:58:26.608Z,38.03
2023-01-18T06:00:53.831Z,42.22
2023-01-18T06:03:21.159Z,42.63
2023-01-18T06:05:48.438Z,36.47
2023-01-18T06:08:15.921Z,37.40
2023-01-18T06:10:42.550Z,34.10
2023-01-18T06:13:09.943Z,33.83
2023-01-18T06:15:36.619Z,29.30
2023-01-18T06:18:03.281Z,30.83
2023-01-18T06:20:30.522Z,32.05
2023-01-18T06:22:58.600Z,31.63
2023-01-18T06:25:26.759Z,32.15
2023-01-18T06:27:53.352Z,31.27
2023-01-18T06:30:20.419Z,29.70
2023-01-18T06:32:49.951Z,27.23
2023-01-18T06:35:16.582Z,25.55
2023-01-18T06:37:45.350Z,25.30
2023-01-18T06:40:12.477Z,25.33
2023-01-18T06:42:39.091Z,23.95
2023-01-18T06:45:06.131Z,25.27
2023-01-18T06:47:32.720Z,26.17
2023-01-18T06:49:59.272Z,25.80
2023-01-18T06:52:25.875Z,32.55
2023-01-18T06:54:52.416Z,38.15
2023-01-18T06:57:19.019Z,41.28
2023-01-18T06:59:45.531Z,38.58
2023-01-18T07:02:16.622Z,32.42
2023-01-18T07:04:45.378Z,45.67
2023-01-18T07:07:13.201Z,39.85
2023-01-18T07:09:39.772Z,42.35
2023-01-18T07:12:06.362Z,42.45
2023-01-18T07:14:32.921Z,35.13
2023-01-18T07:16:59.535Z,33.45
2023-01-18T07:19:26.165Z,33.05
2023-01-18T07:21:53.830Z,32.58
2023-01-18T07:24:21.239Z,31.42
2023-01-18T07:26:48.342Z,30.42
2023-01-18T07:29:15.046Z,29.80
2023-01-18T07:31:41.719Z,28.30
2023-01-18T07:34:09.853Z,25.98
2023-01-18T07:36:38.763Z,26.95
2023-01-18T07:39:06.627Z,24.98
2023-01-18T07:41:33.226Z,25.45
2023-01-18T07:44:00.443Z,25.25
2023-01-18T07:46:27.617Z,24.00
2023-01-18T07:48:54.298Z,25.05
2023-01-18T07:51:24.422Z,25.38
2023-01-18T07:53:55.244Z,26.83
2023-01-18T07:56:22.945Z,28.92
2023-01-18T07:58:49.537Z,30.88
2023-01-18T08:01:19.136Z,33.90
2023-01-18T08:03:48.020Z,36.38
2023-01-18T08:06:18.614Z,35.50
2023-01-18T08:08:45.460Z,34.33
2023-01-18T08:11:12.573Z,31.10
2023-01-18T08:13:39.211Z,32.63
2023-01-18T08:16:07.692Z,37.30
2023-01-18T08:18:34.899Z,47.28
2023-01-18T08:21:01.471Z,47.05
2023-01-18T08:23:28.172Z,51.45
2023-01-18T08:25:55.506Z,53.65
2023-01-18T08:28:22.152Z,57.92
2023-01-18T08:30:49.256Z,61.25
2023-01-18T08:33:15.931Z,55.17
2023-01-18T08:35:47.519Z,28.73
2023-01-18T08:38:15.853Z,50.15
2023-01-18T08:40:43.355Z,25.63
2023-01-18T08:43:11.802Z,25.85
2023-01-18T08:45:38.593Z,31.67
2023-01-18T08:48:07.875Z,45.70
2023-01-18T08:50:35.828Z,73.55
2023-01-18T08:53:04.066Z,69.88
2023-01-18T08:55:30.801Z,62.63
2023-01-18T08:57:58.345Z,45.08
2023-01-18T09:00:28.508Z,47.20
2023-01-18T09:02:55.345Z,57.03
2023-01-18T09:05:22.655Z,59.70
2023-01-18T09:07:50.920Z,54.03
2023-01-18T09:10:17.805Z,42.17
2023-01-18T09:12:44.412Z,56.20
2023-01-18T09:15:11.091Z,53.38
2023-01-18T09:17:37.760Z,54.47
2023-01-18T09:20:09.640Z,37.30
2023-01-18T09:22:36.861Z,49.50
2023-01-18T09:25:04.669Z,56.80
2023-01-18T09:27:31.706Z,58.08
2023-01-18T09:29:58.410Z,58.28
2023-01-18T09:32:25.564Z,54.25
2023-01-18T09:34:53.120Z,49.25
2023-01-18T09:37:19.723Z,39.25
2023-01-18T09:39:52.319Z,35.47
2023-01-18T09:42:25.372Z,34.17
2023-01-18T09:44:55.387Z,34.88
2023-01-18T09:47:34.441Z,33.70
2023-01-18T09:50:21.505Z,33.22
2023-01-18T09:53:08.875Z,32.50
2023-01-18T09:55:54.284Z,31.02
2023-01-18T09:58:45.619Z,27.77
2023-01-18T10:01:18.561Z,27.15
2023-01-18T10:03:50.586Z,24.50
2023-01-18T10:06:28.897Z,26.42
2023-01-18T10:09:23.625Z,30.65
2023-01-18T10:11:59.644Z,32.38
2023-01-18T10:14:51.233Z,35.20
2023-01-18T10:17:25.937Z,79.07
2023-01-18T10:22:19.708Z,41.75
2023-01-18T10:24:55.304Z,45.95
2023-01-18T10:27:39.980Z,42.30
2023-01-18T10:30:25.820Z,42.83
2023-01-18T10:32:57.235Z,39.60
2023-01-18T10:35:27.899Z,46.22
2023-01-18T10:38:02.727Z,37.53
2023-01-18T10:40:29.334Z,66.50
2023-01-18T10:43:04.352Z,70.90
2023-01-18T10:45:35.068Z,74.68
2023-01-18T10:48:31.009Z,33.70
2023-01-18T10:51:05.878Z,29.42
2023-01-18T10:53:39.502Z,33.67
2023-01-18T10:56:24.263Z,28.17
2023-01-18T10:58:50.857Z,28.20
2023-01-18T11:01:22.522Z,32.38
2023-01-18T11:03:54.448Z,25.83
2023-01-18T11:06:22.297Z,21.30
2023-01-18T11:08:50.005Z,21.40
2023-01-18T11:11:49.072Z,21.77
2023-01-18T11:14:32.072Z,22.42
2023-01-18T11:17:04.019Z,21.90
2023-01-18T11:19:30.683Z,22.27
2023-01-18T11:21:57.420Z,23.17
2023-01-18T11:24:31.891Z,21.85
2023-01-18T11:27:03.997Z,20.52
2023-01-18T11:29:36.460Z,22.35
2023-01-18T11:32:13.368Z,24.63
2023-01-18T11:34:43.714Z,22.70
2023-01-18T11:37:30.610Z,24.40
2023-01-18T11:39:57.206Z,24.55
2023-01-18T11:42:35.123Z,26.52
2023-01-18T11:45:24.963Z,28.40
2023-01-18T11:48:13.760Z,25.77
2023-01-18T11:50:53.974Z,22.58
2023-01-18T11:53:43.663Z,22.85
2023-01-18T11:56:19.381Z,21.70
2023-01-18T11:58:46.109Z,22.17
2023-01-18T12:01:43.404Z,23.13
2023-01-18T12:04:47.363Z,25.27
2023-01-18T12:07:32.766Z,23.52
2023-01-18T12:10:01.690Z,21.30
2023-01-18T12:12:55.759Z,22.70
2023-01-18T12:15:46.580Z,21.95
2023-01-18T12:18:30.378Z,22.17
2023-01-18T12:21:18.941Z,21.20
2023-01-18T12:24:11.743Z,23.67
2023-01-18T12:26:53.766Z,21.17
2023-01-18T12:30:17.476Z,22.33
2023-01-18T12:32:55.515Z,25.10
2023-01-18T12:35:39.735Z,28.77
2023-01-18T12:38:22.931Z,27.17
2023-01-18T12:41:20.909Z,26.85
2023-01-18T12:43:57.629Z,26.35
2023-01-18T12:46:51.879Z,26.65
2023-01-18T12:49:21.492Z,36.88
2023-01-18T12:51:54.239Z,36.38
2023-01-18T12:54:46.347Z,35.90
2023-01-18T12:57:16.451Z,31.27
2023-01-18T12:59:54.224Z,26.90
2023-01-18T13:02:36.041Z,26.50
2023-01-18T13:05:37.830Z,24.52
2023-01-18T13:08:15.500Z,23.63
2023-01-18T13:10:43.112Z,21.27
2023-01-18T13:13:17.514Z,22.17
2023-01-18T13:15:48.045Z,22.27
2023-01-18T13:18:43.006Z,21.88
2023-01-18T13:21:26.244Z,22.92
2023-01-18T13:24:23.321Z,23.63
2023-01-18T13:26:50.063Z,24.33
2023-01-18T13:29:29.897Z,28.10
2023-01-18T13:31:57.379Z,31.27
2023-01-18T13:34:44.898Z,37.15
2023-01-18T13:37:45.385Z,40.33
2023-01-18T13:40:25.453Z,42.65
2023-01-18T13:42:52.239Z,45.13
2023-01-18T13:45:22.540Z,46.20
2023-01-18T13:48:05.261Z,47.67
2023-01-18T13:50:31.822Z,41.83
2023-01-18T13:53:13.811Z,41.10
2023-01-18T13:55:46.285Z,37.20
2023-01-18T13:58:24.912Z,32.92
2023-01-18T14:00:51.858Z,29.33
2023-01-18T14:03:27.657Z,29.08
2023-01-18T14:05:57.125Z,32.88
2023-01-18T14:08:32.574Z,29.10
2023-01-18T14:11:02.727Z,28.38
2023-01-18T14:13:44.541Z,28.75
2023-01-18T14:16:27.166Z,26.98
2023-01-18T14:18:59.046Z,27.67
2023-01-18T14:21:25.700Z,27.52
2023-01-18T14:24:06.164Z,26.08
2023-01-18T14:26:36.071Z,24.73
2023-01-18T14:29:05.418Z,24.48
2023-01-18T14:31:36.054Z,25.45
2023-01-18T14:34:25.160Z,25.40
2023-01-18T14:36:52.707Z,27.27
2023-01-18T14:39:21.587Z,28.85
2023-01-18T14:41:53.159Z,29.15
2023-01-18T14:44:37.479Z,29.60
2023-01-18T14:47:23.829Z,30.00
2023-01-18T14:49:53.580Z,29.60
2023-01-18T14:52:20.803Z,27.75
2023-01-18T14:54:52.173Z,26.60
2023-01-18T14:57:19.238Z,25.83
2023-01-18T14:59:55.191Z,25.27
2023-01-18T15:02:29.263Z,23.88
2023-01-18T15:05:17.041Z,23.75
2023-01-18T15:07:46.619Z,22.23
2023-01-18T15:10:19.163Z,21.90
2023-01-18T15:12:52.431Z,21.42
2023-01-18T15:15:27.771Z,21.77
2023-01-18T15:18:06.430Z,21.55
2023-01-18T15:20:33.914Z,23.00
2023-01-18T15:23:00.972Z,25.33
2023-01-18T15:25:31.488Z,27.20
2023-01-18T15:28:11.725Z,30.73
2023-01-18T15:30:53.517Z,32.25
2023-01-18T15:33:22.182Z,35.00
2023-01-18T15:35:54.657Z,41.85
2023-01-18T15:38:21.653Z,40.20
2023-01-18T15:41:17.500Z,43.13
2023-01-18T15:43:46.146Z,52.08
2023-01-18T15:46:15.882Z,62.03
2023-01-18T15:48:47.491Z,68.38
2023-01-18T15:51:14.424Z,72.53
2023-01-18T15:53:52.536Z,68.20
2023-01-18T15:56:33.312Z,64.68
2023-01-18T15:59:02.418Z,58.83
2023-01-18T16:01:33.943Z,46.42
2023-01-18T16:04:04.132Z,43.13
2023-01-18T16:06:40.293Z,30.88
2023-01-18T16:09:12.258Z,28.70
2023-01-18T16:11:43.033Z,27.23
2023-01-18T16:14:27.876Z,26.60
2023-01-18T16:17:02.713Z,29.33
2023-01-18T16:19:46.900Z,25.73
2023-01-18T16:22:21.762Z,27.40
2023-01-18T16:25:01.356Z,29.25
2023-01-18T16:27:30.747Z,28.08
2023-01-18T16:29:59.881Z,29.70
2023-01-18T16:32:29.536Z,30.98
2023-01-18T16:35:21.161Z,29.13
2023-01-18T16:37:48.968Z,30.77
2023-01-18T16:40:21.121Z,31.38
2023-01-18T16:43:25.555Z,34.00
2023-01-18T16:45:54.820Z,37.05
2023-01-18T16:48:23.995Z,42.85
2023-01-18T16:50:51.864Z,44.25
2023-01-18T16:53:19.201Z,47.38
2023-01-18T16:55:48.183Z,44.63
2023-01-18T16:58:16.580Z,46.55
2023-01-18T17:01:11.036Z,45.38
2023-01-18T17:03:37.667Z,46.60
2023-01-18T17:06:04.359Z,48.30
2023-01-18T17:08:30.956Z,48.67
2023-01-18T17:10:57.699Z,48.47
2023-01-18T17:13:24.369Z,50.53
2023-01-18T17:15:52.918Z,47.55
2023-01-18T17:18:23.979Z,49.05
2023-01-18T17:20:50.589Z,49.30
2023-01-18T17:23:17.908Z,50.22
2023-01-18T17:25:45.096Z,53.78
2023-01-18T17:28:17.882Z,53.47
2023-01-18T17:30:46.915Z,54.75
2023-01-18T17:33:20.685Z,55.92
2023-01-18T17:35:52.408Z,54.30
2023-01-18T17:38:25.105Z,55.47
2023-01-18T17:40:52.450Z,58.50
2023-01-18T17:43:32.240Z,62.60
2023-01-18T17:46:04.236Z,60.53
2023-01-18T17:48:31.083Z,65.38
2023-01-18T17:50:58.593Z,70.90
2023-01-18T17:53:26.759Z,69.25
2023-01-18T17:55:53.410Z,74.93
2023-01-18T17:58:19.947Z,76.90
2023-01-18T18:00:46.667Z,81.10
2023-01-18T18:03:13.450Z,82.82
2023-01-18T18:05:40.325Z,87.43
2023-01-18T18:08:07.754Z,86.70
2023-01-18T18:10:34.351Z,86.40
2023-01-18T18:13:01.540Z,90.03
2023-01-18T18:15:28.393Z,89.18
2023-01-18T18:17:55.021Z,91.47
2023-01-18T18:20:22.733Z,93.43
2023-01-18T18:22:49.648Z,94.53
2023-01-18T18:25:16.330Z,95.00
2023-01-18T18:27:47.176Z,95.80
2023-01-18T18:30:15.121Z,96.47
2023-01-18T18:32:41.748Z,99.85
2023-01-18T18:35:23.671Z,98.57
2023-01-18T18:37:51.003Z,95.65
2023-01-18T18:40:17.895Z,99.43
2023-01-18T18:42:49.950Z,101.90
2023-01-18T18:45:27.053Z,100.85
2023-01-18T18:47:53.694Z,104.72
2023-01-18T18:50:20.368Z,103.05
2023-01-18T18:52:46.927Z,103.18
2023-01-18T18:55:13.831Z,101.70
2023-01-18T18:57:40.502Z,101.45
2023-01-18T19:00:07.855Z,99.30
2023-01-18T19:02:35.162Z,99.20
2023-01-18T19:05:02.081Z,99.97
2023-01-18T19:07:28.989Z,100.75
2023-01-18T19:09:55.708Z,104.63
2023-01-18T19:12:22.385Z,104.10
2023-01-18T19:14:48.961Z,100.00
2023-01-18T19:17:25.236Z,101.53
2023-01-18T19:19:56.256Z,97.57
2023-01-18T19:22:23.392Z,98.95
2023-01-18T19:24:49.909Z,101.20
2023-01-18T19:27:16.610Z,95.65
2023-01-18T19:29:43.366Z,96.43
2023-01-18T19:32:10.190Z,97.72
2023-01-18T19:34:38.535Z,96.15
2023-01-18T19:37:05.418Z,96.20
2023-01-18T19:39:34.819Z,96.53
2023-01-18T19:42:02.040Z,93.78
2023-01-18T19:44:28.857Z,94.28
2023-01-18T19:46:56.931Z,92.25
2023-01-18T19:49:26.340Z,91.10
2023-01-18T19:51:54.680Z,89.00
2023-01-18T19:54:21.792Z,89.28
2023-01-18T19:56:48.469Z,87.82
2023-01-18T19:59:15.147Z,95.82
2023-01-18T20:01:42.059Z,87.97
2023-01-18T20:04:09.668Z,87.63
2023-01-18T20:06:39.783Z,84.18
2023-01-18T20:09:19.016Z,81.18
2023-01-18T20:11:46.806Z,79.63
2023-01-18T20:14:13.420Z,76.88
2023-01-18T20:16:40.610Z,80.35
2023-01-18T20:19:07.407Z,82.03
2023-01-18T20:21:33.989Z,80.85
2023-01-18T20:24:01.019Z,80.75
2023-01-18T20:26:36.774Z,78.25
2023-01-18T20:29:07.340Z,78.63
2023-01-18T20:31:39.000Z,78.03
2023-01-18T20:34:06.256Z,76.07
2023-01-18T20:36:35.021Z,76.10
2023-01-18T20:39:02.317Z,78.72
2023-01-18T20:41:28.918Z,77.07
2023-01-18T20:43:55.552Z,74.25
2023-01-18T20:46:22.354Z,74.47
2023-01-18T20:48:49.606Z,73.63
2023-01-18T20:51:17.946Z,75.60
2023-01-18T20:53:44.799Z,71.57
2023-01-18T20:56:27.789Z,68.90
2023-01-18T20:58:55.904Z,67.57
2023-01-18T21:01:22.729Z,65.60
2023-01-18T21:03:54.588Z,67.97
2023-01-18T21:06:21.302Z,67.85
2023-01-18T21:08:47.895Z,67.68
2023-01-18T21:11:18.732Z,65.82
2023-01-18T21:13:45.311Z,64.40
2023-01-18T21:16:12.589Z,65.80
2023-01-18T21:18:39.455Z,66.85
2023-01-18T21:21:06.526Z,66.93
2023-01-18T21:23:39.551Z,64.95
2023-01-18T21:26:11.769Z,63.20
2023-01-18T21:28:38.387Z,65.68
2023-01-18T21:31:05.763Z,66.50
2023-01-18T21:33:33.162Z,66.40
2023-01-18T21:36:05.264Z,63.78
2023-01-18T21:38:32.362Z,64.65
2023-01-18T21:41:18.917Z,62.53
2023-01-18T21:44:03.838Z,61.38
2023-01-18T21:46:30.422Z,61.60
2023-01-18T21:48:59.178Z,57.70
2023-01-18T21:51:44.030Z,56.63
2023-01-18T21:54:16.753Z,57.92
2023-01-18T21:56:47.264Z,55.63
2023-01-18T21:59:14.543Z,54.65
2023-01-18T22:01:47.118Z,57.42
2023-01-18T22:04:34.025Z,55.92
2023-01-18T22:07:01.269Z,54.78
2023-01-18T22:09:29.588Z,56.50
2023-01-18T22:11:57.352Z,57.00
2023-01-18T22:14:25.650Z,58.75
2023-01-18T22:16:52.443Z,57.25
2023-01-18T22:19:19.205Z,58.30
2023-01-18T22:21:46.080Z,55.75
2023-01-18T22:24:13.595Z,56.42
2023-01-18T22:26:40.909Z,57.42
2023-01-18T22:29:07.645Z,57.35
2023-01-18T22:31:35.052Z,56.88
2023-01-18T22:34:04.465Z,57.17
2023-01-18T22:36:32.240Z,57.15
2023-01-18T22:38:58.811Z,54.10
2023-01-18T22:41:29.325Z,55.95
2023-01-18T22:43:56.512Z,54.00
2023-01-18T22:46:24.058Z,55.28
2023-01-18T22:48:51.053Z,56.05
2023-01-18T22:51:20.452Z,53.33
2023-01-18T22:53:47.928Z,53.85
2023-01-18T22:56:17.655Z,52.83
2023-01-18T22:58:44.655Z,52.55
2023-01-18T23:01:26.093Z,51.35
2023-01-18T23:03:56.116Z,50.00
2023-01-18T23:06:22.801Z,50.80
2023-01-18T23:08:49.940Z,49.08
2023-01-18T23:11:20.020Z,51.13
2023-01-18T23:14:09.551Z,49.80
2023-01-18T23:16:54.901Z,48.15
2023-01-18T23:19:23.835Z,49.63
2023-01-18T23:21:50.775Z,49.28
2023-01-18T23:24:17.743Z,48.05
2023-01-18T23:26:44.790Z,47.80
2023-01-18T23:29:11.362Z,46.38
2023-01-18T23:31:37.911Z,47.78
2023-01-18T23:34:04.509Z,48.17
2023-01-18T23:36:31.249Z,46.83
2023-01-18T23:39:16.500Z,48.47
2023-01-18T23:42:01.859Z,47.05
2023-01-18T23:44:47.155Z,46.38
2023-01-18T23:47:32.583Z,46.13
2023-01-18T23:50:17.675Z,44.92
2023-01-18T23:55:29.092Z,40.47
2023-01-18T23:57:55.665Z,40.97
